sensor_id;sensor_type;location;lat;lon;timestamp;temperature;humidity
70695;DHT22;58269;52.246;21.104;2022-09-09T00:01:28;14.68;57.55
70695;DHT22;58269;52.246;21.104;2022-09-09T00:03:52;14.66;57.58
70695;DHT22;58269;52.246;21.104;2022-09-09T00:08:13;14.66;58.15
70695;DHT22;58269;52.246;21.104;2022-09-09T00:12:33;14.63;57.97
70695;DHT22;58269;52.246;21.104;2022-09-09T00:16:57;14.56;58.05
70695;DHT22;58269;52.246;21.104;2022-09-09T00:21:34;14.52;58.68
70695;DHT22;58269;52.246;21.104;2022-09-09T00:23:38;14.48;58.53
70695;DHT22;58269;52.246;21.104;2022-09-09T00:27:46;14.45;59.17
70695;DHT22;58269;52.246;21.104;2022-09-09T00:30:15;14.41;59.23
70695;DHT22;58269;52.246;21.104;2022-09-09T00:32:19;14.36;59.77
70695;DHT22;58269;52.246;21.104;2022-09-09T00:34:22;14.36;60.14
70695;DHT22;58269;52.246;21.104;2022-09-09T00:36:25;14.33;59.73
70695;DHT22;58269;52.246;21.104;2022-09-09T00:38:39;14.31;59.56
70695;DHT22;58269;52.246;21.104;2022-09-09T00:40:49;14.32;59.77
70695;DHT22;58269;52.246;21.104;2022-09-09T00:42:42;14.31;59.89
70695;DHT22;58269;52.246;21.104;2022-09-09T00:54:08;14.21;60.12
70695;DHT22;58269;52.246;21.104;2022-09-09T00:56:20;14.21;60.69
70695;DHT22;58269;52.246;21.104;2022-09-09T00:58:21;14.18;60.58
70695;DHT22;58269;52.246;21.104;2022-09-09T01:00:31;14.20;60.45
70695;DHT22;58269;52.246;21.104;2022-09-09T01:02:45;14.15;60.50
70695;DHT22;58269;52.246;21.104;2022-09-09T01:04:45;14.15;60.84
70695;DHT22;58269;52.246;21.104;2022-09-09T01:06:46;14.11;60.89
70695;DHT22;58269;52.246;21.104;2022-09-09T01:10:59;14.07;61.28
70695;DHT22;58269;52.246;21.104;2022-09-09T01:13:01;14.05;61.16
70695;DHT22;58269;52.246;21.104;2022-09-09T01:15:26;14.05;62.30
70695;DHT22;58269;52.246;21.104;2022-09-09T01:17:50;14.04;61.94
70695;DHT22;58269;52.246;21.104;2022-09-09T01:22:03;14.02;62.06
70695;DHT22;58269;52.246;21.104;2022-09-09T01:24:27;14.01;61.78
70695;DHT22;58269;52.246;21.104;2022-09-09T01:26:37;14.00;62.17
70695;DHT22;58269;52.246;21.104;2022-09-09T01:28:47;13.98;61.90
70695;DHT22;58269;52.246;21.104;2022-09-09T01:30:50;13.98;61.75
70695;DHT22;58269;52.246;21.104;2022-09-09T01:32:55;13.94;61.90
70695;DHT22;58269;52.246;21.104;2022-09-09T01:34:58;13.97;61.82
70695;DHT22;58269;52.246;21.104;2022-09-09T01:37:08;13.94;61.91
70695;DHT22;58269;52.246;21.104;2022-09-09T01:39:11;13.94;62.01
70695;DHT22;58269;52.246;21.104;2022-09-09T01:41:13;13.91;62.15
70695;DHT22;58269;52.246;21.104;2022-09-09T01:43:28;13.90;62.13
70695;DHT22;58269;52.246;21.104;2022-09-09T01:45:29;13.94;63.17
70695;DHT22;58269;52.246;21.104;2022-09-09T01:47:31;14.99;71.45
70695;DHT22;58269;52.246;21.104;2022-09-09T01:49:33;16.33;76.38
70695;DHT22;58269;52.246;21.104;2022-09-09T01:51:37;17.16;74.79
70695;DHT22;58269;52.246;21.104;2022-09-09T01:53:41;17.79;74.64
70695;DHT22;58269;52.246;21.104;2022-09-09T01:55:51;18.22;69.89
70695;DHT22;58269;52.246;21.104;2022-09-09T01:58:16;18.51;69.26
70695;DHT22;58269;52.246;21.104;2022-09-09T02:00:16;18.86;61.40
70695;DHT22;58269;52.246;21.104;2022-09-09T02:02:30;19.11;65.09
70695;DHT22;58269;52.246;21.104;2022-09-09T02:04:38;19.35;64.21
70695;DHT22;58269;52.246;21.104;2022-09-09T02:06:41;19.57;63.13
70695;DHT22;58269;52.246;21.104;2022-09-09T02:08:48;19.71;60.12
70695;DHT22;58269;52.246;21.104;2022-09-09T02:11:11;19.74;56.05
70695;DHT22;58269;52.246;21.104;2022-09-09T02:13:13;19.07;53.82
70695;DHT22;58269;52.246;21.104;2022-09-09T02:15:19;18.31;52.37
70695;DHT22;58269;52.246;21.104;2022-09-09T02:17:27;17.73;52.45
70695;DHT22;58269;52.246;21.104;2022-09-09T02:19:36;17.25;52.49
70695;DHT22;58269;52.246;21.104;2022-09-09T02:21:44;16.85;52.53
70695;DHT22;58269;52.246;21.104;2022-09-09T02:23:50;16.54;52.78
70695;DHT22;58269;52.246;21.104;2022-09-09T02:25:52;16.26;53.83
70695;DHT22;58269;52.246;21.104;2022-09-09T02:27:57;16.00;54.37
70695;DHT22;58269;52.246;21.104;2022-09-09T02:30:03;15.81;54.58
70695;DHT22;58269;52.246;21.104;2022-09-09T02:32:14;15.62;55.48
70695;DHT22;58269;52.246;21.104;2022-09-09T02:34:13;15.41;54.84
70695;DHT22;58269;52.246;21.104;2022-09-09T02:36:15;15.25;56.41
70695;DHT22;58269;52.246;21.104;2022-09-09T02:38:17;15.10;56.29
70695;DHT22;58269;52.246;21.104;2022-09-09T02:40:25;14.96;56.92
70695;DHT22;58269;52.246;21.104;2022-09-09T02:42:28;14.83;57.03
70695;DHT22;58269;52.246;21.104;2022-09-09T02:44:29;14.71;56.75
70695;DHT22;58269;52.246;21.104;2022-09-09T02:46:44;14.61;59.15
70695;DHT22;58269;52.246;21.104;2022-09-09T02:51:25;14.42;59.21
70695;DHT22;58269;52.246;21.104;2022-09-09T02:57:55;14.22;59.47
70695;DHT22;58269;52.246;21.104;2022-09-09T02:59:58;14.14;59.85
70695;DHT22;58269;52.246;21.104;2022-09-09T03:02:00;14.10;59.62
70695;DHT22;58269;52.246;21.104;2022-09-09T03:04:02;14.07;60.29
70695;DHT22;58269;52.246;21.104;2022-09-09T03:06:05;14.05;60.21
70695;DHT22;58269;52.246;21.104;2022-09-09T03:08:06;14.04;60.40
70695;DHT22;58269;52.246;21.104;2022-09-09T03:10:08;14.00;60.80
70695;DHT22;58269;52.246;21.104;2022-09-09T03:12:10;13.98;61.06
70695;DHT22;58269;52.246;21.104;2022-09-09T03:14:12;13.97;61.10
70695;DHT22;58269;52.246;21.104;2022-09-09T03:16:15;13.97;61.27
70695;DHT22;58269;52.246;21.104;2022-09-09T03:18:18;13.94;61.45
70695;DHT22;58269;52.246;21.104;2022-09-09T03:20:21;13.93;61.59
70695;DHT22;58269;52.246;21.104;2022-09-09T03:22:22;13.94;62.17
70695;DHT22;58269;52.246;21.104;2022-09-09T03:24:24;13.91;61.89
70695;DHT22;58269;52.246;21.104;2022-09-09T03:26:25;13.90;62.11
70695;DHT22;58269;52.246;21.104;2022-09-09T03:28:26;13.91;62.93
70695;DHT22;58269;52.246;21.104;2022-09-09T03:30:29;14.65;69.56
70695;DHT22;58269;52.246;21.104;2022-09-09T03:32:30;15.88;67.91
70695;DHT22;58269;52.246;21.104;2022-09-09T03:34:32;16.81;69.72
70695;DHT22;58269;52.246;21.104;2022-09-09T03:36:33;17.46;68.53
70695;DHT22;58269;52.246;21.104;2022-09-09T03:38:35;17.96;71.13
70695;DHT22;58269;52.246;21.104;2022-09-09T03:40:36;18.25;67.35
70695;DHT22;58269;52.246;21.104;2022-09-09T03:42:38;18.48;61.15
70695;DHT22;58269;52.246;21.104;2022-09-09T03:44:39;18.75;57.48
70695;DHT22;58269;52.246;21.104;2022-09-09T03:46:41;18.47;57.10
70695;DHT22;58269;52.246;21.104;2022-09-09T03:48:42;17.90;55.61
70695;DHT22;58269;52.246;21.104;2022-09-09T03:50:47;17.33;55.14
70695;DHT22;58269;52.246;21.104;2022-09-09T03:52:48;16.90;55.46
70695;DHT22;58269;52.246;21.104;2022-09-09T03:54:52;16.57;55.06
70695;DHT22;58269;52.246;21.104;2022-09-09T03:56:54;16.29;55.59
70695;DHT22;58269;52.246;21.104;2022-09-09T03:58:55;16.08;56.36
70695;DHT22;58269;52.246;21.104;2022-09-09T04:00:58;15.85;56.26
70695;DHT22;58269;52.246;21.104;2022-09-09T04:03:00;15.68;56.99
70695;DHT22;58269;52.246;21.104;2022-09-09T04:05:01;15.50;59.02
70695;DHT22;58269;52.246;21.104;2022-09-09T04:07:03;15.33;57.81
70695;DHT22;58269;52.246;21.104;2022-09-09T04:09:06;15.20;57.60
70695;DHT22;58269;52.246;21.104;2022-09-09T04:11:07;15.07;57.90
70695;DHT22;58269;52.246;21.104;2022-09-09T04:13:09;14.97;58.57
70695;DHT22;58269;52.246;21.104;2022-09-09T04:15:10;14.84;60.35
70695;DHT22;58269;52.246;21.104;2022-09-09T04:17:12;14.78;61.12
70695;DHT22;58269;52.246;21.104;2022-09-09T04:19:13;14.69;60.21
70695;DHT22;58269;52.246;21.104;2022-09-09T04:21:15;14.61;60.89
70695;DHT22;58269;52.246;21.104;2022-09-09T04:23:18;14.52;62.15
70695;DHT22;58269;52.246;21.104;2022-09-09T04:25:20;14.45;61.62
70695;DHT22;58269;52.246;21.104;2022-09-09T04:27:21;14.41;62.02
70695;DHT22;58269;52.246;21.104;2022-09-09T04:29:22;14.38;61.42
70695;DHT22;58269;52.246;21.104;2022-09-09T04:31:25;14.29;61.89
70695;DHT22;58269;52.246;21.104;2022-09-09T04:33:28;14.31;62.70
70695;DHT22;58269;52.246;21.104;2022-09-09T04:35:30;15.17;66.92
70695;DHT22;58269;52.246;21.104;2022-09-09T04:37:31;16.41;68.74
70695;DHT22;58269;52.246;21.104;2022-09-09T04:39:33;17.23;69.93
70695;DHT22;58269;52.246;21.104;2022-09-09T04:41:35;17.79;66.36
70695;DHT22;58269;52.246;21.104;2022-09-09T04:43:36;18.18;65.27
70695;DHT22;58269;52.246;21.104;2022-09-09T04:45:38;18.55;66.60
70695;DHT22;58269;52.246;21.104;2022-09-09T04:47:41;18.80;61.25
70695;DHT22;58269;52.246;21.104;2022-09-09T04:49:43;19.19;59.15
70695;DHT22;58269;52.246;21.104;2022-09-09T04:51:45;19.00;55.59
70695;DHT22;58269;52.246;21.104;2022-09-09T04:53:47;18.33;55.05
70695;DHT22;58269;52.246;21.104;2022-09-09T04:55:51;17.73;54.67
70695;DHT22;58269;52.246;21.104;2022-09-09T04:57:52;17.28;54.65
70695;DHT22;58269;52.246;21.104;2022-09-09T04:59:55;16.88;56.26
70695;DHT22;58269;52.246;21.104;2022-09-09T05:01:55;16.60;56.65
70695;DHT22;58269;52.246;21.104;2022-09-09T05:03:57;16.33;57.23
70695;DHT22;58269;52.246;21.104;2022-09-09T05:06:09;16.09;57.53
70695;DHT22;58269;52.246;21.104;2022-09-09T05:08:10;15.88;58.49
70695;DHT22;58269;52.246;21.104;2022-09-09T05:10:12;15.69;60.43
70695;DHT22;58269;52.246;21.104;2022-09-09T05:12:14;15.51;60.76
70695;DHT22;58269;52.246;21.104;2022-09-09T05:14:17;15.34;60.87
70695;DHT22;58269;52.246;21.104;2022-09-09T05:16:19;15.23;60.76
70695;DHT22;58269;52.246;21.104;2022-09-09T05:18:21;15.07;61.26
70695;DHT22;58269;52.246;21.104;2022-09-09T05:20:23;14.97;62.00
70695;DHT22;58269;52.246;21.104;2022-09-09T05:22:24;15.00;64.15
70695;DHT22;58269;52.246;21.104;2022-09-09T05:24:26;15.99;67.73
70695;DHT22;58269;52.246;21.104;2022-09-09T05:26:29;17.02;65.90
70695;DHT22;58269;52.246;21.104;2022-09-09T05:28:31;17.76;63.59
70695;DHT22;58269;52.246;21.104;2022-09-09T05:30:34;18.28;61.82
70695;DHT22;58269;52.246;21.104;2022-09-09T05:32:35;18.70;62.29
70695;DHT22;58269;52.246;21.104;2022-09-09T05:34:37;19.09;60.41
70695;DHT22;58269;52.246;21.104;2022-09-09T05:36:40;19.33;59.33
70695;DHT22;58269;52.246;21.104;2022-09-09T05:38:41;19.14;55.76
70695;DHT22;58269;52.246;21.104;2022-09-09T05:40:48;18.45;55.09
70695;DHT22;58269;52.246;21.104;2022-09-09T05:42:51;17.80;55.60
70695;DHT22;58269;52.246;21.104;2022-09-09T05:44:54;17.33;56.45
70695;DHT22;58269;52.246;21.104;2022-09-09T05:46:56;16.97;56.01
70695;DHT22;58269;52.246;21.104;2022-09-09T05:48:59;16.66;58.26
70695;DHT22;58269;52.246;21.104;2022-09-09T05:51:04;16.40;60.23
70695;DHT22;58269;52.246;21.104;2022-09-09T05:53:05;16.15;60.50
70695;DHT22;58269;52.246;21.104;2022-09-09T05:55:07;15.96;61.27
70695;DHT22;58269;52.246;21.104;2022-09-09T05:57:08;15.78;59.99
70695;DHT22;58269;52.246;21.104;2022-09-09T05:59:09;15.64;59.59
70695;DHT22;58269;52.246;21.104;2022-09-09T06:01:22;15.48;62.25
70695;DHT22;58269;52.246;21.104;2022-09-09T06:03:23;15.84;64.97
70695;DHT22;58269;52.246;21.104;2022-09-09T06:05:25;16.84;65.08
70695;DHT22;58269;52.246;21.104;2022-09-09T06:07:28;17.59;65.56
70695;DHT22;58269;52.246;21.104;2022-09-09T06:09:29;18.08;62.96
70695;DHT22;58269;52.246;21.104;2022-09-09T06:11:31;18.44;61.29
70695;DHT22;58269;52.246;21.104;2022-09-09T06:13:33;18.72;61.43
70695;DHT22;58269;52.246;21.104;2022-09-09T06:15:34;19.00;59.86
70695;DHT22;58269;52.246;21.104;2022-09-09T06:17:37;19.17;57.93
70695;DHT22;58269;52.246;21.104;2022-09-09T06:19:39;18.80;56.08
70695;DHT22;58269;52.246;21.104;2022-09-09T06:21:41;18.15;55.64
70695;DHT22;58269;52.246;21.104;2022-09-09T06:23:44;17.67;56.33
70695;DHT22;58269;52.246;21.104;2022-09-09T06:25:45;17.23;58.20
70695;DHT22;58269;52.246;21.104;2022-09-09T06:27:50;16.88;58.23
70695;DHT22;58269;52.246;21.104;2022-09-09T06:29:51;16.57;59.04
70695;DHT22;58269;52.246;21.104;2022-09-09T06:31:52;16.34;59.98
70695;DHT22;58269;52.246;21.104;2022-09-09T06:33:58;16.12;60.51
70695;DHT22;58269;52.246;21.104;2022-09-09T06:35:59;15.96;61.80
70695;DHT22;58269;52.246;21.104;2022-09-09T06:38:01;15.76;62.34
70695;DHT22;58269;52.246;21.104;2022-09-09T06:40:03;16.11;64.81
70695;DHT22;58269;52.246;21.104;2022-09-09T06:42:05;16.98;65.04
70695;DHT22;58269;52.246;21.104;2022-09-09T06:44:25;17.86;63.74
70695;DHT22;58269;52.246;21.104;2022-09-09T06:46:29;18.42;66.68
70695;DHT22;58269;52.246;21.104;2022-09-09T06:48:31;18.78;61.69
70695;DHT22;58269;52.246;21.104;2022-09-09T06:50:34;19.10;63.14
70695;DHT22;58269;52.246;21.104;2022-09-09T06:52:36;19.27;61.00
70695;DHT22;58269;52.246;21.104;2022-09-09T06:54:37;19.29;58.47
70695;DHT22;58269;52.246;21.104;2022-09-09T06:56:39;18.80;56.63
70695;DHT22;58269;52.246;21.104;2022-09-09T06:58:45;18.14;55.61
70695;DHT22;58269;52.246;21.104;2022-09-09T07:00:48;17.69;56.92
70695;DHT22;58269;52.246;21.104;2022-09-09T07:02:50;17.29;56.25
70695;DHT22;58269;52.246;21.104;2022-09-09T07:04:51;16.98;56.71
70695;DHT22;58269;52.246;21.104;2022-09-09T07:06:52;16.72;56.53
70695;DHT22;58269;52.246;21.104;2022-09-09T07:08:58;16.48;59.98
70695;DHT22;58269;52.246;21.104;2022-09-09T07:11:05;16.27;59.31
70695;DHT22;58269;52.246;21.104;2022-09-09T07:13:07;16.06;60.98
70695;DHT22;58269;52.246;21.104;2022-09-09T07:15:08;15.92;59.40
70695;DHT22;58269;52.246;21.104;2022-09-09T07:17:10;15.76;60.48
70695;DHT22;58269;52.246;21.104;2022-09-09T07:19:13;15.62;61.64
70695;DHT22;58269;52.246;21.104;2022-09-09T07:21:15;15.54;64.13
70695;DHT22;58269;52.246;21.104;2022-09-09T07:23:17;16.46;66.70
70695;DHT22;58269;52.246;21.104;2022-09-09T07:25:18;17.50;67.23
70695;DHT22;58269;52.246;21.104;2022-09-09T07:27:22;18.24;67.01
70695;DHT22;58269;52.246;21.104;2022-09-09T07:29:23;18.78;67.16
70695;DHT22;58269;52.246;21.104;2022-09-09T07:31:27;19.11;64.42
70695;DHT22;58269;52.246;21.104;2022-09-09T07:33:32;19.27;64.28
70695;DHT22;58269;52.246;21.104;2022-09-09T07:35:34;19.37;60.12
70695;DHT22;58269;52.246;21.104;2022-09-09T07:37:37;19.47;61.79
70695;DHT22;58269;52.246;21.104;2022-09-09T07:39:39;19.57;60.46
70695;DHT22;58269;52.246;21.104;2022-09-09T07:41:46;19.62;58.67
70695;DHT22;58269;52.246;21.104;2022-09-09T07:43:48;19.17;56.13
70695;DHT22;58269;52.246;21.104;2022-09-09T07:45:57;18.52;56.19
70695;DHT22;58269;52.246;21.104;2022-09-09T07:47:55;18.00;56.14
70695;DHT22;58269;52.246;21.104;2022-09-09T07:49:57;17.62;58.52
70695;DHT22;58269;52.246;21.104;2022-09-09T07:52:01;17.26;59.67
70695;DHT22;58269;52.246;21.104;2022-09-09T07:54:06;16.95;59.05
70695;DHT22;58269;52.246;21.104;2022-09-09T07:56:13;16.68;58.77
70695;DHT22;58269;52.246;21.104;2022-09-09T07:58:15;16.48;60.93
70695;DHT22;58269;52.246;21.104;2022-09-09T08:00:16;16.29;60.37
70695;DHT22;58269;52.246;21.104;2022-09-09T08:02:21;16.12;59.37
70695;DHT22;58269;52.246;21.104;2022-09-09T08:04:23;15.95;59.86
70695;DHT22;58269;52.246;21.104;2022-09-09T08:06:27;15.81;60.18
70695;DHT22;58269;52.246;21.104;2022-09-09T08:08:30;15.66;60.32
70695;DHT22;58269;52.246;21.104;2022-09-09T08:10:31;15.65;63.87
70695;DHT22;58269;52.246;21.104;2022-09-09T08:12:33;16.67;72.27
70695;DHT22;58269;52.246;21.104;2022-09-09T08:14:35;17.66;72.12
70695;DHT22;58269;52.246;21.104;2022-09-09T08:16:39;18.17;63.81
70695;DHT22;58269;52.246;21.104;2022-09-09T08:18:41;18.58;68.15
70695;DHT22;58269;52.246;21.104;2022-09-09T08:20:42;18.93;66.97
70695;DHT22;58269;52.246;21.104;2022-09-09T08:22:43;19.15;64.52
70695;DHT22;58269;52.246;21.104;2022-09-09T08:24:45;19.34;62.98
70695;DHT22;58269;52.246;21.104;2022-09-09T08:26:48;19.48;63.65
70695;DHT22;58269;52.246;21.104;2022-09-09T08:28:51;19.61;60.81
70695;DHT22;58269;52.246;21.104;2022-09-09T08:30:53;19.69;62.84
70695;DHT22;58269;52.246;21.104;2022-09-09T08:32:55;19.75;60.07
70695;DHT22;58269;52.246;21.104;2022-09-09T08:34:57;19.93;61.61
70695;DHT22;58269;52.246;21.104;2022-09-09T08:36:58;20.16;59.11
70695;DHT22;58269;52.246;21.104;2022-09-09T08:39:01;20.01;57.09
70695;DHT22;58269;52.246;21.104;2022-09-09T08:43:25;18.61;54.87
70695;DHT22;58269;52.246;21.104;2022-09-09T08:45:34;18.11;55.31
70695;DHT22;58269;52.246;21.104;2022-09-09T08:50:22;17.33;58.35
70695;DHT22;58269;52.246;21.104;2022-09-09T08:52:49;17.01;56.44
70695;DHT22;58269;52.246;21.104;2022-09-09T08:54:48;16.71;57.12
70695;DHT22;58269;52.246;21.104;2022-09-09T08:56:50;16.51;58.07
70695;DHT22;58269;52.246;21.104;2022-09-09T08:58:53;16.32;57.64
70695;DHT22;58269;52.246;21.104;2022-09-09T09:01:26;16.15;58.96
70695;DHT22;58269;52.246;21.104;2022-09-09T09:03:40;15.96;58.99
70695;DHT22;58269;52.246;21.104;2022-09-09T09:05:49;15.85;59.89
70695;DHT22;58269;52.246;21.104;2022-09-09T09:12:35;15.99;66.74
70695;DHT22;58269;52.246;21.104;2022-09-09T09:14:37;17.23;72.28
70695;DHT22;58269;52.246;21.104;2022-09-09T09:17:04;18.22;72.01
70695;DHT22;58269;52.246;21.104;2022-09-09T09:19:08;19.00;71.94
70695;DHT22;58269;52.246;21.104;2022-09-09T09:21:15;19.37;70.85
70695;DHT22;58269;52.246;21.104;2022-09-09T09:23:22;19.64;68.82
70695;DHT22;58269;52.246;21.104;2022-09-09T09:25:35;19.81;66.70
70695;DHT22;58269;52.246;21.104;2022-09-09T09:27:43;19.93;62.80
70695;DHT22;58269;52.246;21.104;2022-09-09T09:29:44;20.03;60.37
70695;DHT22;58269;52.246;21.104;2022-09-09T09:31:56;20.09;58.51
70695;DHT22;58269;52.246;21.104;2022-09-09T09:33:59;19.65;56.34
70695;DHT22;58269;52.246;21.104;2022-09-09T09:36:04;19.04;55.44
70695;DHT22;58269;52.246;21.104;2022-09-09T09:38:18;18.48;56.58
70695;DHT22;58269;52.246;21.104;2022-09-09T09:40:21;18.00;57.41
70695;DHT22;58269;52.246;21.104;2022-09-09T09:42:23;17.67;56.10
70695;DHT22;58269;52.246;21.104;2022-09-09T09:44:27;17.38;58.49
70695;DHT22;58269;52.246;21.104;2022-09-09T09:46:29;17.11;58.47
70695;DHT22;58269;52.246;21.104;2022-09-09T09:48:35;16.84;59.04
70695;DHT22;58269;52.246;21.104;2022-09-09T09:53:02;16.43;59.25
70695;DHT22;58269;52.246;21.104;2022-09-09T09:55:12;16.23;59.40
70695;DHT22;58269;52.246;21.104;2022-09-09T09:57:11;16.08;59.75
70695;DHT22;58269;52.246;21.104;2022-09-09T10:01:32;17.21;68.22
70695;DHT22;58269;52.246;21.104;2022-09-09T10:03:35;18.12;70.16
70695;DHT22;58269;52.246;21.104;2022-09-09T10:05:39;18.75;65.91
70695;DHT22;58269;52.246;21.104;2022-09-09T10:07:44;19.27;67.36
70695;DHT22;58269;52.246;21.104;2022-09-09T10:09:54;19.66;63.87
70695;DHT22;58269;52.246;21.104;2022-09-09T10:17:05;20.23;61.28
70695;DHT22;58269;52.246;21.104;2022-09-09T10:19:10;20.36;61.68
70695;DHT22;58269;52.246;21.104;2022-09-09T10:21:25;20.40;59.02
70695;DHT22;58269;52.246;21.104;2022-09-09T10:34:49;17.69;58.90
70695;DHT22;58269;52.246;21.104;2022-09-09T10:36:48;17.36;57.73
70695;DHT22;58269;52.246;21.104;2022-09-09T10:39:02;17.12;57.82
70695;DHT22;58269;52.246;21.104;2022-09-09T10:41:36;16.90;58.27
70695;DHT22;58269;52.246;21.104;2022-09-09T10:48:10;17.02;66.50
70695;DHT22;58269;52.246;21.104;2022-09-09T10:50:29;18.01;66.98
70695;DHT22;58269;52.246;21.104;2022-09-09T10:52:32;18.70;61.64
70695;DHT22;58269;52.246;21.104;2022-09-09T10:57:34;19.44;61.07
70695;DHT22;58269;52.246;21.104;2022-09-09T10:59:40;19.95;63.20
70695;DHT22;58269;52.246;21.104;2022-09-09T11:01:44;20.32;63.20
70695;DHT22;58269;52.246;21.104;2022-09-09T11:03:49;20.54;63.23
70695;DHT22;58269;52.246;21.104;2022-09-09T11:05:57;20.75;62.95
70695;DHT22;58269;52.246;21.104;2022-09-09T11:10:44;20.58;56.02
70695;DHT22;58269;52.246;21.104;2022-09-09T11:12:48;19.68;55.00
70695;DHT22;58269;52.246;21.104;2022-09-09T11:17:00;18.62;55.42
70695;DHT22;58269;52.246;21.104;2022-09-09T11:21:31;17.87;56.33
70695;DHT22;58269;52.246;21.104;2022-09-09T11:23:42;17.60;58.34
70695;DHT22;58269;52.246;21.104;2022-09-09T11:25:45;17.36;59.65
70695;DHT22;58269;52.246;21.104;2022-09-09T11:27:59;17.15;58.34
70695;DHT22;58269;52.246;21.104;2022-09-09T11:30:22;16.97;59.19
70695;DHT22;58269;52.246;21.104;2022-09-09T11:32:59;16.85;62.29
70695;DHT22;58269;52.246;21.104;2022-09-09T11:35:20;17.79;65.93
70695;DHT22;58269;52.246;21.104;2022-09-09T11:42:17;19.88;67.65
70695;DHT22;58269;52.246;21.104;2022-09-09T11:44:23;20.22;64.06
70695;DHT22;58269;52.246;21.104;2022-09-09T11:46:31;20.56;64.41
70695;DHT22;58269;52.246;21.104;2022-09-09T11:48:42;20.83;64.20
70695;DHT22;58269;52.246;21.104;2022-09-09T11:50:45;21.06;63.56
70695;DHT22;58269;52.246;21.104;2022-09-09T11:52:47;21.28;61.52
70695;DHT22;58269;52.246;21.104;2022-09-09T11:54:50;21.39;59.72
70695;DHT22;58269;52.246;21.104;2022-09-09T11:56:51;21.56;60.55
70695;DHT22;58269;52.246;21.104;2022-09-09T11:59:21;21.69;60.09
70695;DHT22;58269;52.246;21.104;2022-09-09T12:01:37;21.77;55.61
70695;DHT22;58269;52.246;21.104;2022-09-09T12:03:47;21.16;54.05
70695;DHT22;58269;52.246;21.104;2022-09-09T12:05:46;20.42;53.65
70695;DHT22;58269;52.246;21.104;2022-09-09T12:07:53;19.81;54.68
70695;DHT22;58269;52.246;21.104;2022-09-09T12:10:01;19.31;55.03
70695;DHT22;58269;52.246;21.104;2022-09-09T12:14:21;18.45;55.03
70695;DHT22;58269;52.246;21.104;2022-09-09T12:16:34;18.15;55.07
70695;DHT22;58269;52.246;21.104;2022-09-09T12:18:38;17.88;58.00
70695;DHT22;58269;52.246;21.104;2022-09-09T12:20:40;17.65;59.83
70695;DHT22;58269;52.246;21.104;2022-09-09T12:27:15;17.05;59.06
70695;DHT22;58269;52.246;21.104;2022-09-09T12:29:41;16.87;60.40
70695;DHT22;58269;52.246;21.104;2022-09-09T12:31:44;16.68;60.15
70695;DHT22;58269;52.246;21.104;2022-09-09T12:33:46;16.54;60.91
70695;DHT22;58269;52.246;21.104;2022-09-09T12:35:57;16.44;60.73
70695;DHT22;58269;52.246;21.104;2022-09-09T12:38:00;16.34;63.04
70695;DHT22;58269;52.246;21.104;2022-09-09T12:40:17;17.12;68.45
70695;DHT22;58269;52.246;21.104;2022-09-09T12:42:16;18.21;72.72
70695;DHT22;58269;52.246;21.104;2022-09-09T12:44:17;18.96;71.55
70695;DHT22;58269;52.246;21.104;2022-09-09T12:46:26;19.23;68.89
70695;DHT22;58269;52.246;21.104;2022-09-09T12:48:27;19.65;67.71
70695;DHT22;58269;52.246;21.104;2022-09-09T12:50:29;20.16;65.58
70695;DHT22;58269;52.246;21.104;2022-09-09T12:52:34;20.54;65.51
70695;DHT22;58269;52.246;21.104;2022-09-09T12:54:36;20.87;66.66
70695;DHT22;58269;52.246;21.104;2022-09-09T12:56:37;21.12;65.58
70695;DHT22;58269;52.246;21.104;2022-09-09T12:58:38;21.32;64.37
70695;DHT22;58269;52.246;21.104;2022-09-09T13:00:50;21.49;63.77
70695;DHT22;58269;52.246;21.104;2022-09-09T13:02:55;21.70;63.34
70695;DHT22;58269;52.246;21.104;2022-09-09T13:05:06;21.83;62.58
70695;DHT22;58269;52.246;21.104;2022-09-09T13:07:08;21.95;59.32
70695;DHT22;58269;52.246;21.104;2022-09-09T13:09:10;21.69;57.37
70695;DHT22;58269;52.246;21.104;2022-09-09T13:11:14;20.94;55.00
70695;DHT22;58269;52.246;21.104;2022-09-09T13:13:17;20.26;55.13
70695;DHT22;58269;52.246;21.104;2022-09-09T13:15:22;19.68;53.97
70695;DHT22;58269;52.246;21.104;2022-09-09T13:17:26;19.23;55.21
70695;DHT22;58269;52.246;21.104;2022-09-09T13:19:35;18.84;55.73
70695;DHT22;58269;52.246;21.104;2022-09-09T13:21:42;18.42;56.28
70695;DHT22;58269;52.246;21.104;2022-09-09T13:23:38;18.14;55.60
70695;DHT22;58269;52.246;21.104;2022-09-09T13:25:40;17.91;59.90
70695;DHT22;58269;52.246;21.104;2022-09-09T13:27:41;17.67;59.34
70695;DHT22;58269;52.246;21.104;2022-09-09T13:29:51;17.46;58.58
70695;DHT22;58269;52.246;21.104;2022-09-09T13:31:49;17.25;58.61
70695;DHT22;58269;52.246;21.104;2022-09-09T13:33:53;17.07;59.13
70695;DHT22;58269;52.246;21.104;2022-09-09T13:35:59;16.88;61.56
70695;DHT22;58269;52.246;21.104;2022-09-09T13:38:08;16.77;61.38
70695;DHT22;58269;52.246;21.104;2022-09-09T13:40:17;16.63;61.04
70695;DHT22;58269;52.246;21.104;2022-09-09T13:42:27;16.51;63.10
70695;DHT22;58269;52.246;21.104;2022-09-09T13:44:35;17.23;69.47
70695;DHT22;58269;52.246;21.104;2022-09-09T13:46:41;18.24;70.12
70695;DHT22;58269;52.246;21.104;2022-09-09T13:48:42;18.94;69.74
70695;DHT22;58269;52.246;21.104;2022-09-09T13:50:43;19.31;67.06
70695;DHT22;58269;52.246;21.104;2022-09-09T13:52:47;19.69;62.77
70695;DHT22;58269;52.246;21.104;2022-09-09T13:54:50;20.17;67.17
70695;DHT22;58269;52.246;21.104;2022-09-09T13:56:51;20.50;66.46
70695;DHT22;58269;52.246;21.104;2022-09-09T13:58:52;20.73;62.91
70695;DHT22;58269;52.246;21.104;2022-09-09T14:00:53;20.93;61.53
70695;DHT22;58269;52.246;21.104;2022-09-09T14:02:55;21.09;61.90
70695;DHT22;58269;52.246;21.104;2022-09-09T14:04:56;21.28;59.98
70695;DHT22;58269;52.246;21.104;2022-09-09T14:06:57;21.39;55.95
70695;DHT22;58269;52.246;21.104;2022-09-09T14:08:59;21.19;56.44
70695;DHT22;58269;52.246;21.104;2022-09-09T14:11:00;20.48;55.17
70695;DHT22;58269;52.246;21.104;2022-09-09T14:13:01;19.86;55.10
70695;DHT22;58269;52.246;21.104;2022-09-09T14:15:03;19.34;56.00
70695;DHT22;58269;52.246;21.104;2022-09-09T14:17:05;18.93;57.43
70695;DHT22;58269;52.246;21.104;2022-09-09T14:19:07;18.56;56.08
70695;DHT22;58269;52.246;21.104;2022-09-09T14:21:08;18.24;55.89
70695;DHT22;58269;52.246;21.104;2022-09-09T14:23:11;17.98;56.56
70695;DHT22;58269;52.246;21.104;2022-09-09T14:25:13;17.79;57.41